createdAt,value
2019-04-29T00:01:50.921Z,3.95
2019-04-29T00:04:17.394Z,4.33
2019-04-29T00:06:43.941Z,4.65
2019-04-29T00:09:15.064Z,4.33
2019-04-29T00:11:41.600Z,4.90
2019-04-29T00:14:28.042Z,4.80
2019-04-29T00:16:56.770Z,3.08
2019-04-29T00:19:25.253Z,3.35
2019-04-29T00:21:51.686Z,3.83
2019-04-29T00:24:18.255Z,7.33
2019-04-29T00:26:44.813Z,3.40
2019-04-29T00:29:11.705Z,5.20
2019-04-29T00:31:38.292Z,4.42
2019-04-29T00:34:04.727Z,4.15
2019-04-29T00:36:39.236Z,4.00
2019-04-29T00:39:24.341Z,4.33
2019-04-29T00:42:11.090Z,4.72
2019-04-29T00:44:37.928Z,3.85
2019-04-29T00:47:04.503Z,5.35
2019-04-29T00:49:30.967Z,4.08
2019-04-29T00:51:57.368Z,4.62
2019-04-29T00:54:25.732Z,3.80
2019-04-29T00:56:52.207Z,4.72
2019-04-29T00:59:18.652Z,4.08
2019-04-29T01:01:45.240Z,4.95
2019-04-29T01:04:11.679Z,4.70
2019-04-29T01:06:38.051Z,4.10
2019-04-29T01:09:07.374Z,4.20
2019-04-29T01:11:33.949Z,4.90
2019-04-29T01:14:00.860Z,4.20
2019-04-29T01:16:27.321Z,4.28
2019-04-29T01:18:53.675Z,3.75
2019-04-29T01:21:20.169Z,4.85
2019-04-29T01:23:46.600Z,3.60
2019-04-29T01:26:30.340Z,4.78
2019-04-29T01:28:58.691Z,6.50
2019-04-29T01:31:27.043Z,4.85
2019-04-29T01:33:55.523Z,4.60
2019-04-29T01:36:23.893Z,4.53
2019-04-29T01:38:52.250Z,4.10
2019-04-29T01:41:20.748Z,5.55
2019-04-29T01:44:01.689Z,3.77
2019-04-29T01:46:28.361Z,3.80
2019-04-29T01:48:55.308Z,4.80
2019-04-29T01:51:21.885Z,4.65
2019-04-29T01:53:48.434Z,4.45
2019-04-29T01:56:14.995Z,5.62
2019-04-29T01:58:41.541Z,5.03
2019-04-29T02:01:08.361Z,4.90
2019-04-29T02:03:34.817Z,3.95
2019-04-29T02:06:01.260Z,5.55
2019-04-29T02:08:27.928Z,4.20
2019-04-29T02:10:55.288Z,5.53
2019-04-29T02:13:22.156Z,4.33
2019-04-29T02:15:48.504Z,5.47
2019-04-29T02:18:14.875Z,4.58
2019-04-29T02:20:41.338Z,5.08
2019-04-29T02:23:15.473Z,6.60
2019-04-29T02:25:46.805Z,4.90
2019-04-29T02:28:13.272Z,4.72
2019-04-29T02:30:43.449Z,4.85
2019-04-29T02:33:10.133Z,3.92
2019-04-29T02:35:36.582Z,4.95
2019-04-29T02:38:05.136Z,4.35
2019-04-29T02:40:36.477Z,6.00
2019-04-29T02:43:04.933Z,4.72
2019-04-29T02:45:33.304Z,6.30
2019-04-29T02:47:59.759Z,3.95
2019-04-29T02:50:26.334Z,4.00
2019-04-29T02:52:52.880Z,4.35
2019-04-29T02:55:21.331Z,4.25
2019-04-29T02:57:49.700Z,4.67
2019-04-29T03:00:35.192Z,5.22
2019-04-29T03:03:12.343Z,4.17
2019-04-29T03:05:43.806Z,4.25
2019-04-29T03:08:10.347Z,4.60
2019-04-29T03:10:37.211Z,4.97
2019-04-29T03:13:04.059Z,7.95
2019-04-29T03:15:32.048Z,4.92
2019-04-29T03:17:58.657Z,4.10
2019-04-29T03:20:30.212Z,3.98
2019-04-29T03:23:15.699Z,4.95
2019-04-29T03:25:42.136Z,4.60
2019-04-29T03:28:08.800Z,5.05
2019-04-29T03:30:35.151Z,6.75
2019-04-29T03:33:01.820Z,5.15
2019-04-29T03:35:28.678Z,4.50
2019-04-29T03:37:55.145Z,4.70
2019-04-29T03:40:21.631Z,4.80
2019-04-29T03:42:48.300Z,4.30
2019-04-29T03:45:14.856Z,4.62
2019-04-29T03:47:41.247Z,4.80
2019-04-29T03:50:08.084Z,4.65
2019-04-29T03:52:34.547Z,5.47
2019-04-29T03:55:01.090Z,5.00
2019-04-29T03:57:29.466Z,4.55
2019-04-29T03:59:57.191Z,4.30
2019-04-29T04:02:25.700Z,4.58
2019-04-29T04:04:54.049Z,4.55
2019-04-29T04:07:38.979Z,4.78
2019-04-29T04:10:06.133Z,5.28
2019-04-29T04:12:32.814Z,5.25
2019-04-29T04:14:59.373Z,5.45
2019-04-29T04:17:46.024Z,5.28
2019-04-29T04:20:13.332Z,6.80
2019-04-29T04:22:49.281Z,4.85
2019-04-29T04:25:16.824Z,5.22
2019-04-29T04:27:43.496Z,3.75
2019-04-29T04:30:10.353Z,5.08
2019-04-29T04:32:36.817Z,5.55
2019-04-29T04:35:04.877Z,8.50
2019-04-29T04:37:31.463Z,7.67
2019-04-29T04:39:58.005Z,5.75
2019-04-29T04:42:24.467Z,7.15
2019-04-29T04:44:50.845Z,6.03
2019-04-29T04:47:17.904Z,6.47
2019-04-29T04:49:45.082Z,5.33
2019-04-29T04:52:11.712Z,5.25
2019-04-29T04:54:58.064Z,5.45
2019-04-29T04:57:24.519Z,7.58
2019-04-29T04:59:51.081Z,8.53
2019-04-29T05:02:17.639Z,7.10
2019-04-29T05:04:44.559Z,4.05
2019-04-29T05:07:10.999Z,5.45
2019-04-29T05:09:37.463Z,5.60
2019-04-29T05:12:04.113Z,8.63
2019-04-29T05:14:30.579Z,8.13
2019-04-29T05:16:57.039Z,5.78
2019-04-29T05:19:23.502Z,5.15
2019-04-29T05:21:49.952Z,5.95
2019-04-29T05:24:16.524Z,5.28
2019-04-29T05:26:42.977Z,4.83
2019-04-29T05:29:09.535Z,4.92
2019-04-29T05:31:35.892Z,4.87
2019-04-29T05:34:02.965Z,5.22
2019-04-29T05:36:40.481Z,5.67
2019-04-29T05:39:11.596Z,5.42
2019-04-29T05:41:38.168Z,4.35
2019-04-29T05:44:18.825Z,5.65
2019-04-29T05:46:52.175Z,8.23
2019-04-29T05:49:20.544Z,5.22
2019-04-29T05:51:51.522Z,6.53
2019-04-29T05:54:27.022Z,5.35
2019-04-29T05:56:53.807Z,5.92
2019-04-29T05:59:20.464Z,4.92
2019-04-29T06:01:48.790Z,7.70
2019-04-29T06:04:16.417Z,4.83
2019-04-29T06:06:43.768Z,4.97
2019-04-29T06:09:11.476Z,6.72
2019-04-29T06:11:38.901Z,5.90
2019-04-29T06:14:05.439Z,4.50
2019-04-29T06:16:32.212Z,4.90
2019-04-29T06:19:00.433Z,5.45
2019-04-29T06:21:27.040Z,8.65
2019-04-29T06:23:54.769Z,7.55
2019-04-29T06:26:21.543Z,6.90
2019-04-29T06:28:48.429Z,6.10
2019-04-29T06:31:14.900Z,5.37
2019-04-29T06:33:41.361Z,5.55
2019-04-29T06:36:09.228Z,5.67
2019-04-29T06:38:35.780Z,5.97
2019-04-29T06:41:05.549Z,8.28
2019-04-29T06:43:31.123Z,17.15
2019-04-29T06:45:57.593Z,8.60
2019-04-29T06:48:24.143Z,7.67
2019-04-29T06:50:50.684Z,8.58
2019-04-29T06:53:21.419Z,6.80
2019-04-29T06:55:45.625Z,6.17
2019-04-29T06:58:12.090Z,9.50
2019-04-29T07:00:38.576Z,8.25
2019-04-29T07:03:05.028Z,7.12
2019-04-29T07:05:51.718Z,6.80
2019-04-29T07:08:18.262Z,7.28
2019-04-29T07:10:44.717Z,8.58
2019-04-29T07:13:11.205Z,9.20
2019-04-29T07:15:38.009Z,9.23
2019-04-29T07:18:04.688Z,8.70
2019-04-29T07:20:32.473Z,9.55
2019-04-29T07:23:00.680Z,7.90
2019-04-29T07:25:28.725Z,9.78
2019-04-29T07:27:56.524Z,9.15
2019-04-29T07:30:22.984Z,12.28
2019-04-29T07:32:49.471Z,9.93
2019-04-29T07:35:16.043Z,10.20
2019-04-29T07:37:42.512Z,10.00
2019-04-29T07:40:10.024Z,11.90
2019-04-29T07:42:36.864Z,9.43
2019-04-29T07:45:23.820Z,10.93
2019-04-29T07:47:56.665Z,11.87
2019-04-29T07:50:22.334Z,11.57
2019-04-29T07:52:49.967Z,11.53
2019-04-29T07:55:17.499Z,11.53
2019-04-29T07:57:47.751Z,16.07
2019-04-29T08:00:14.630Z,12.70
2019-04-29T08:02:41.249Z,12.20
2019-04-29T08:05:09.209Z,13.37
2019-04-29T08:07:37.090Z,14.60
2019-04-29T08:10:22.548Z,19.30
2019-04-29T08:12:35.752Z,15.40
2019-04-29T08:15:08.492Z,13.57
2019-04-29T08:17:35.816Z,23.63
2019-04-29T08:20:05.269Z,13.40
2019-04-29T08:22:32.640Z,12.93
2019-04-29T08:24:59.204Z,19.83
2019-04-29T08:27:38.956Z,14.07
2019-04-29T08:29:53.921Z,14.20
2019-04-29T08:32:20.477Z,14.63
2019-04-29T08:34:47.366Z,15.10
2019-04-29T08:37:13.920Z,18.70
2019-04-29T08:39:40.749Z,15.37
2019-04-29T08:42:09.408Z,19.23
2019-04-29T08:44:59.171Z,19.33
2019-04-29T08:47:30.457Z,16.63
2019-04-29T08:49:53.138Z,13.93
2019-04-29T08:52:19.598Z,12.73
2019-04-29T08:54:46.379Z,16.07
2019-04-29T08:57:12.824Z,15.37
2019-04-29T08:59:39.202Z,13.70
2019-04-29T09:02:10.257Z,15.00
2019-04-29T09:04:35.289Z,15.50
2019-04-29T09:07:12.498Z,16.63
2019-04-29T09:09:30.544Z,13.53
2019-04-29T09:11:56.985Z,12.13
2019-04-29T09:14:23.456Z,15.33
2019-04-29T09:16:50.008Z,14.80
2019-04-29T09:19:16.665Z,13.50
2019-04-29T09:21:45.022Z,14.23
2019-04-29T09:24:11.397Z,13.60
2019-04-29T09:26:48.917Z,15.40
2019-04-29T09:29:34.917Z,17.30
2019-04-29T09:32:01.769Z,14.70
2019-04-29T09:34:28.245Z,14.90
2019-04-29T09:36:54.899Z,13.43
2019-04-29T09:39:21.678Z,15.80
2019-04-29T09:41:50.055Z,16.47
2019-04-29T09:44:35.290Z,15.17
2019-04-29T09:47:08.506Z,17.73
2019-04-29T09:49:33.288Z,16.47
2019-04-29T09:51:59.726Z,14.70
2019-04-29T09:54:26.207Z,17.13
2019-04-29T09:56:52.655Z,17.10
2019-04-29T09:59:24.514Z,17.03
2019-04-29T10:01:55.015Z,17.57
2019-04-29T10:04:23.652Z,19.13
2019-04-29T10:06:52.024Z,20.40
2019-04-29T10:09:18.849Z,17.53
2019-04-29T10:11:45.347Z,18.07
2019-04-29T10:14:11.883Z,18.10
2019-04-29T10:16:58.687Z,16.20
2019-04-29T10:19:43.645Z,14.60
2019-04-29T10:22:10.420Z,13.53
2019-04-29T10:24:36.890Z,11.10
2019-04-29T10:27:07.112Z,12.13
2019-04-29T10:29:32.712Z,11.47
2019-04-29T10:32:02.541Z,12.80
2019-04-29T10:34:31.711Z,14.23
2019-04-29T10:36:56.639Z,12.53
2019-04-29T10:39:43.316Z,11.77
2019-04-29T10:42:12.322Z,15.60
2019-04-29T10:44:55.968Z,13.63
2019-04-29T10:47:24.445Z,17.07
2019-04-29T10:49:52.989Z,19.13
2019-04-29T10:52:19.565Z,18.43
2019-04-29T10:54:46.217Z,17.67
2019-04-29T10:57:14.802Z,16.77
2019-04-29T10:59:44.936Z,16.73
2019-04-29T11:02:17.559Z,15.80
2019-04-29T11:04:46.212Z,10.20
2019-04-29T11:07:19.141Z,9.70
2019-04-29T11:09:46.348Z,13.63
2019-04-29T11:12:15.428Z,13.27
2019-04-29T11:14:41.988Z,10.60
2019-04-29T11:17:15.998Z,12.30
2019-04-29T11:19:39.941Z,15.47
2019-04-29T11:22:07.893Z,11.33
2019-04-29T11:24:42.153Z,14.97
2019-04-29T11:27:12.112Z,13.47
2019-04-29T11:29:38.797Z,11.77
2019-04-29T11:32:07.708Z,14.70
2019-04-29T11:34:54.879Z,16.97
2019-04-29T11:37:23.942Z,19.47
2019-04-29T11:39:51.733Z,17.10
2019-04-29T11:42:18.560Z,17.03
2019-04-29T11:44:45.320Z,15.80
2019-04-29T11:47:11.895Z,15.60
2019-04-29T11:49:40.243Z,12.17
2019-04-29T11:52:09.656Z,16.13
2019-04-29T11:54:35.165Z,15.03
2019-04-29T11:57:02.019Z,15.23
2019-04-29T11:59:36.824Z,15.80
2019-04-29T12:02:05.577Z,16.00
2019-04-29T12:04:36.902Z,13.20
2019-04-29T12:07:03.648Z,13.07
2019-04-29T12:09:32.258Z,12.70
2019-04-29T12:11:59.275Z,11.63
2019-04-29T12:14:27.652Z,12.00
2019-04-29T12:17:12.856Z,12.63
2019-04-29T12:19:47.820Z,10.00
2019-04-29T12:22:26.914Z,11.03
2019-04-29T12:24:42.932Z,9.70
2019-04-29T12:27:10.079Z,11.73
2019-04-29T12:29:36.552Z,8.30
2019-04-29T12:32:25.010Z,8.17
2019-04-29T12:34:52.269Z,6.17
2019-04-29T12:37:34.517Z,8.93
2019-04-29T12:40:03.274Z,7.90
2019-04-29T12:42:41.563Z,10.73
2019-04-29T12:45:27.234Z,8.97
2019-04-29T12:47:53.948Z,13.53
2019-04-29T12:50:21.654Z,8.87
2019-04-29T12:52:48.955Z,9.40
2019-04-29T12:55:29.366Z,8.77
2019-04-29T12:57:45.688Z,10.00
2019-04-29T13:00:14.655Z,11.70
2019-04-29T13:02:55.640Z,10.73
2019-04-29T13:05:37.985Z,13.33
2019-04-29T13:08:06.452Z,12.10
2019-04-29T13:10:41.809Z,11.70
2019-04-29T13:13:06.097Z,11.70
2019-04-29T13:15:48.394Z,11.20
2019-04-29T13:18:23.213Z,9.87
2019-04-29T13:20:50.603Z,10.07
2019-04-29T13:23:19.339Z,10.47
2019-04-29T13:25:42.524Z,13.17
2019-04-29T13:28:09.000Z,11.17
2019-04-29T13:30:36.033Z,12.50
2019-04-29T13:33:06.292Z,13.57
2019-04-29T13:35:31.767Z,14.10
2019-04-29T13:37:58.217Z,14.93
2019-04-29T13:40:25.245Z,16.53
2019-04-29T13:42:52.102Z,15.30
2019-04-29T13:45:24.968Z,14.03
2019-04-29T13:48:07.243Z,13.13
2019-04-29T13:50:39.195Z,12.40
2019-04-29T13:53:01.860Z,17.50
2019-04-29T13:55:47.367Z,15.23
2019-04-29T13:57:56.792Z,14.80
2019-04-29T14:00:28.187Z,14.27
2019-04-29T14:02:59.244Z,15.97
2019-04-29T14:05:27.132Z,15.97
2019-04-29T14:07:54.367Z,15.20
2019-04-29T14:10:21.052Z,14.00
2019-04-29T14:12:49.333Z,13.80
2019-04-29T14:15:15.970Z,14.17
2019-04-29T14:17:42.444Z,14.27
2019-04-29T14:20:10.880Z,12.67
2019-04-29T14:22:37.776Z,12.57
2019-04-29T14:25:04.620Z,12.90
2019-04-29T14:27:31.132Z,14.87
2019-04-29T14:29:57.608Z,13.40
2019-04-29T14:32:34.658Z,15.60
2019-04-29T14:35:07.239Z,15.70
2019-04-29T14:37:33.384Z,16.77
2019-04-29T14:40:02.963Z,14.90
2019-04-29T14:42:31.834Z,18.60
2019-04-29T14:45:00.249Z,13.90
2019-04-29T14:47:43.647Z,13.33
2019-04-29T14:50:15.609Z,11.87
2019-04-29T14:52:40.454Z,12.30
2019-04-29T14:55:07.010Z,10.37
2019-04-29T14:57:33.585Z,10.87
2019-04-29T15:00:00.226Z,10.80
2019-04-29T15:02:27.315Z,10.70
2019-04-29T15:04:54.030Z,9.30
2019-04-29T15:07:20.581Z,10.90
2019-04-29T15:09:57.303Z,11.23
2019-04-29T15:12:30.469Z,9.77
2019-04-29T15:15:13.868Z,10.20
2019-04-29T15:17:44.835Z,12.33
2019-04-29T15:20:31.846Z,11.03
2019-04-29T15:22:58.259Z,9.47
2019-04-29T15:25:24.711Z,11.70
2019-04-29T15:27:51.297Z,9.97
2019-04-29T15:30:18.037Z,10.30
2019-04-29T15:32:44.503Z,10.80
2019-04-29T15:35:11.155Z,10.13
2019-04-29T15:37:37.537Z,10.20
2019-04-29T15:40:06.254Z,12.93
2019-04-29T15:42:33.369Z,12.93
2019-04-29T15:44:59.816Z,13.50
2019-04-29T15:47:30.825Z,11.77
2019-04-29T15:49:55.852Z,12.20
2019-04-29T15:52:26.023Z,10.90
2019-04-29T15:54:52.730Z,13.30
2019-04-29T15:57:19.479Z,12.57
2019-04-29T15:59:49.174Z,12.03
2019-04-29T16:02:14.536Z,11.53
2019-04-29T16:04:47.319Z,11.47
2019-04-29T16:07:28.250Z,10.90
2019-04-29T16:10:05.572Z,10.07
2019-04-29T16:12:45.379Z,9.20
2019-04-29T16:15:11.404Z,9.80
2019-04-29T16:17:39.310Z,9.30
2019-04-29T16:20:06.764Z,9.60
2019-04-29T16:22:38.859Z,8.80
2019-04-29T16:25:05.027Z,11.10
2019-04-29T16:27:30.013Z,9.00
2019-04-29T16:29:56.521Z,8.10
2019-04-29T16:32:27.612Z,9.17
2019-04-29T16:34:54.192Z,9.23
2019-04-29T16:37:24.842Z,8.77
2019-04-29T16:39:52.915Z,9.37
2019-04-29T16:42:22.127Z,9.20
2019-04-29T16:44:48.829Z,8.53
2019-04-29T16:47:16.079Z,8.73
2019-04-29T16:49:42.567Z,8.80
2019-04-29T16:52:09.191Z,7.73
2019-04-29T16:54:36.039Z,8.67
2019-04-29T16:57:02.816Z,8.20
2019-04-29T16:59:29.297Z,8.73
2019-04-29T17:01:55.960Z,8.10
2019-04-29T17:04:22.525Z,7.90
2019-04-29T17:07:11.304Z,8.30
2019-04-29T17:09:31.060Z,13.87
2019-04-29T17:11:58.852Z,9.47
2019-04-29T17:14:25.404Z,12.23
2019-04-29T17:16:52.090Z,7.33
2019-04-29T17:19:18.898Z,6.73
2019-04-29T17:21:45.366Z,7.93
2019-04-29T17:24:11.825Z,9.07
2019-04-29T17:26:40.224Z,7.43
2019-04-29T17:29:38.390Z,8.17
2019-04-29T17:31:56.951Z,7.30
2019-04-29T17:34:54.685Z,6.70
2019-04-29T17:36:49.464Z,6.20
2019-04-29T17:39:16.714Z,6.30
2019-04-29T17:42:03.505Z,5.93
2019-04-29T17:44:31.874Z,22.27
2019-04-29T17:47:07.106Z,5.70
2019-04-29T17:49:33.719Z,7.60
2019-04-29T17:52:02.952Z,5.87
2019-04-29T17:54:30.453Z,6.13
2019-04-29T17:57:16.203Z,4.73
2019-04-29T17:59:35.880Z,10.20
2019-04-29T18:02:05.378Z,7.40
2019-04-29T18:04:36.654Z,7.93
2019-04-29T18:07:17.293Z,5.17
2019-04-29T18:09:58.366Z,6.60
2019-04-29T18:12:25.077Z,5.27
2019-04-29T18:14:51.703Z,10.00
2019-04-29T18:17:26.702Z,10.57
2019-04-29T18:19:50.448Z,7.07
2019-04-29T18:22:35.670Z,5.13
2019-04-29T18:25:30.427Z,5.90
2019-04-29T18:27:53.515Z,5.57
2019-04-29T18:30:33.224Z,15.93
2019-04-29T18:32:48.188Z,15.27
2019-04-29T18:35:15.393Z,8.57
2019-04-29T18:37:43.720Z,5.10
2019-04-29T18:40:10.772Z,5.70
2019-04-29T18:42:38.430Z,8.33
2019-04-29T18:45:06.396Z,5.67
2019-04-29T18:47:35.330Z,5.73
2019-04-29T18:50:01.629Z,8.00
2019-04-29T18:52:28.555Z,6.93
2019-04-29T18:54:55.168Z,4.90
2019-04-29T18:57:30.122Z,6.40
2019-04-29T18:59:50.084Z,7.90
2019-04-29T19:02:16.665Z,6.93
2019-04-29T19:05:11.984Z,7.50
2019-04-29T19:07:39.770Z,6.70
2019-04-29T19:10:13.009Z,9.90
2019-04-29T19:12:39.092Z,9.13
2019-04-29T19:15:11.522Z,8.30
2019-04-29T19:17:39.733Z,10.80
2019-04-29T19:20:08.536Z,6.50
2019-04-29T19:22:35.907Z,25.03
2019-04-29T19:25:08.662Z,19.07
2019-04-29T19:27:37.104Z,14.67
2019-04-29T19:30:00.670Z,9.80
2019-04-29T19:32:27.143Z,13.27
2019-04-29T19:34:54.974Z,20.33
2019-04-29T19:37:21.877Z,12.77
2019-04-29T19:39:52.567Z,20.17
2019-04-29T19:42:28.573Z,8.93
2019-04-29T19:44:45.396Z,8.00
2019-04-29T19:47:15.217Z,7.43
2019-04-29T19:49:44.575Z,7.90
2019-04-29T19:52:08.812Z,9.77
2019-04-29T19:54:35.268Z,9.00
2019-04-29T19:57:07.220Z,10.83
2019-04-29T19:59:31.485Z,8.70
2019-04-29T20:02:05.857Z,9.63
2019-04-29T20:04:31.699Z,10.40
2019-04-29T20:07:06.053Z,12.33
2019-04-29T20:09:29.448Z,10.70
2019-04-29T20:11:56.665Z,11.87
2019-04-29T20:14:27.350Z,15.27
2019-04-29T20:16:59.396Z,13.10
2019-04-29T20:19:36.107Z,10.97
2019-04-29T20:22:07.479Z,14.37
2019-04-29T20:24:31.479Z,11.17
2019-04-29T20:26:58.322Z,13.83
2019-04-29T20:29:27.162Z,10.93
2019-04-29T20:31:56.360Z,13.80
2019-04-29T20:34:24.613Z,16.10
2019-04-29T20:36:50.571Z,14.23
2019-04-29T20:39:22.991Z,13.40
2019-04-29T20:41:48.755Z,14.53
2019-04-29T20:44:16.010Z,14.67
2019-04-29T20:46:51.675Z,13.20
2019-04-29T20:49:11.135Z,13.80
2019-04-29T20:51:48.904Z,14.23
2019-04-29T20:54:09.312Z,16.97
2019-04-29T20:56:37.165Z,18.70
2019-04-29T20:59:09.086Z,16.80
2019-04-29T21:01:36.507Z,14.67
2019-04-29T21:04:05.690Z,15.07
2019-04-29T21:06:32.715Z,18.23
2019-04-29T21:09:00.300Z,17.47
2019-04-29T21:11:31.424Z,20.53
2019-04-29T21:14:02.664Z,39.73
2019-04-29T21:16:31.025Z,34.53
2019-04-29T21:18:59.399Z,20.13
2019-04-29T21:21:25.968Z,19.60
2019-04-29T21:23:52.524Z,22.13
2019-04-29T21:26:19.004Z,19.87
2019-04-29T21:28:47.087Z,20.03
2019-04-29T21:31:16.604Z,19.37
2019-04-29T21:33:42.133Z,22.17
2019-04-29T21:36:15.450Z,21.80
2019-04-29T21:39:01.938Z,18.63
2019-04-29T21:41:31.949Z,21.20
2019-04-29T21:43:59.304Z,18.93
2019-04-29T21:46:29.498Z,20.77
2019-04-29T21:48:55.665Z,22.90
2019-04-29T21:51:22.324Z,20.83
2019-04-29T21:53:48.784Z,20.20
2019-04-29T21:56:16.039Z,19.90
2019-04-29T21:58:42.640Z,19.97
2019-04-29T22:01:09.223Z,24.03
2019-04-29T22:03:35.789Z,20.70
2019-04-29T22:06:02.900Z,21.37
2019-04-29T22:08:30.091Z,21.40
2019-04-29T22:10:58.287Z,19.67
2019-04-29T22:13:25.424Z,22.30
2019-04-29T22:15:52.415Z,23.20
2019-04-29T22:18:18.877Z,19.50
2019-04-29T22:20:45.352Z,19.53
2019-04-29T22:23:13.271Z,20.43
2019-04-29T22:25:41.143Z,20.90
2019-04-29T22:28:10.747Z,19.40
2019-04-29T22:30:37.160Z,21.10
2019-04-29T22:33:05.224Z,19.40
2019-04-29T22:35:32.829Z,20.80
2019-04-29T22:38:00.355Z,17.57
2019-04-29T22:40:27.092Z,17.50
2019-04-29T22:43:08.925Z,19.00
2019-04-29T22:45:33.990Z,17.93
2019-04-29T22:48:12.083Z,18.17
2019-04-29T22:50:27.455Z,18.00
2019-04-29T22:52:56.649Z,21.30
2019-04-29T22:55:22.896Z,18.80
2019-04-29T22:57:49.370Z,22.50
2019-04-29T23:00:17.927Z,22.30
2019-04-29T23:02:44.757Z,22.07
2019-04-29T23:05:11.522Z,20.00
2019-04-29T23:07:37.987Z,23.10
2019-04-29T23:10:08.143Z,19.50
2019-04-29T23:12:35.064Z,21.60
2019-04-29T23:15:03.481Z,22.60
2019-04-29T23:17:30.056Z,26.03
2019-04-29T23:19:58.420Z,26.20
2019-04-29T23:22:29.707Z,36.33
2019-04-29T23:24:58.164Z,24.17
2019-04-29T23:27:25.907Z,23.70
2019-04-29T23:29:52.837Z,24.40
2019-04-29T23:32:19.292Z,23.93
2019-04-29T23:34:45.979Z,25.10
2019-04-29T23:37:12.747Z,24.77
2019-04-29T23:39:39.311Z,24.67
2019-04-29T23:42:12.214Z,23.63
2019-04-29T23:44:37.806Z,22.10
2019-04-29T23:47:05.120Z,23.40
2019-04-29T23:49:35.475Z,24.53
2019-04-29T23:51:59.338Z,25.00
2019-04-29T23:54:26.516Z,30.97
2019-04-29T23:57:00.890Z,25.73
2019-04-29T23:59:32.563Z,26.97
